Terminal Aerodrome Forecast
Issued by NWS Boston, MA

Home | Current Version | Previous Version | Text Only | Print | Product List | Glossary On
Versions: 1 2 3 4 5 6 7 8 9 10 11 12 13 14 15 16 17 18 19 20 21 22 23 24 25 26 27 28 29 30 31 32 33 34 35 36 37 38 39 40 41 42
856
FTUS41 KBOX 081740 AAC
TAFBDL
TAF AMD
KBDL 081740Z 0818/0924 01011G23KT 1SM -SN OVC015
     FM082100 36009KT 2SM -SN OVC020
     FM090500 36004KT P6SM VCSH OVC020
     FM091200 VRB03KT P6SM OVC020
     FM092100 02005KT P6SM VCSH OVC035=

USA.gov is the U.S. government's official web portal to all federal, state and local government web resources and services.